Terminal Aerodrome Forecast
Issued by NWS

Home | Current Version | Previous Version | Text Only | Print | Product List | Glossary On
Versions: 1 2 3 4 5 6 7 8 9 10 11 12 13 14 15 16 17 18
164
FTUS43 KILX 262340
TAFBMI
TAF
KBMI 262340Z 2700/2724 20010KT P6SM BKN250
     FM270800 16005KT P6SM VCTS SCT030CB BKN060
     FM271100 18009KT 3SM -TSRA BR BKN035CB
     FM271400 18013KT 6SM SHRA BR OVC040
     FM271900 18015KT P6SM VCTS SCT025CB BKN050=

USA.gov is the U.S. government's official web portal to all federal, state and local government web resources and services.